createdAt,value
2022-11-03T00:01:37.461Z,38.10
2022-11-03T00:04:06.191Z,30.17
2022-11-03T00:06:34.710Z,37.57
2022-11-03T00:09:05.307Z,47.23
2022-11-03T00:11:36.127Z,21.30
2022-11-03T00:14:04.976Z,29.87
2022-11-03T00:16:33.411Z,53.97
2022-11-03T00:19:01.512Z,19.97
2022-11-03T00:21:30.369Z,15.67
2022-11-03T00:23:58.443Z,32.57
2022-11-03T00:26:27.992Z,23.17
2022-11-03T00:29:00.652Z,16.47
2022-11-03T00:31:30.747Z,30.27
2022-11-03T00:33:59.987Z,36.67
2022-11-03T00:36:29.759Z,22.80
2022-11-03T00:38:58.249Z,54.67
2022-11-03T00:41:27.494Z,37.60
2022-11-03T00:43:57.387Z,37.00
2022-11-03T00:46:26.927Z,47.97
2022-11-03T00:48:55.008Z,21.30
2022-11-03T00:51:25.409Z,26.27
2022-11-03T00:53:55.121Z,94.90
2022-11-03T00:56:25.210Z,20.83
2022-11-03T00:58:55.633Z,30.60
2022-11-03T01:01:26.941Z,31.20
2022-11-03T01:04:15.057Z,56.80
2022-11-03T01:06:51.314Z,18.23
2022-11-03T01:09:20.445Z,37.60
2022-11-03T01:11:54.840Z,27.07
2022-11-03T01:14:22.944Z,45.53
2022-11-03T01:16:52.522Z,40.97
2022-11-03T01:19:20.736Z,33.50
2022-11-03T01:21:48.858Z,81.77
2022-11-03T01:24:17.219Z,51.70
2022-11-03T01:26:45.369Z,67.30
2022-11-03T01:29:13.467Z,52.87
2022-11-03T01:31:41.573Z,25.67
2022-11-03T01:34:16.303Z,16.60
2022-11-03T01:36:45.073Z,55.00
2022-11-03T01:39:14.083Z,43.40
2022-11-03T01:41:43.530Z,106.73
2022-11-03T01:44:30.534Z,51.87
2022-11-03T01:47:04.141Z,69.53
2022-11-03T01:49:37.143Z,36.00
2022-11-03T01:52:09.619Z,83.10
2022-11-03T01:54:40.003Z,40.33
2022-11-03T01:57:14.827Z,34.33
2022-11-03T01:59:45.156Z,40.07
2022-11-03T02:02:13.544Z,48.00
2022-11-03T02:04:43.957Z,84.93
2022-11-03T02:07:18.591Z,85.40
2022-11-03T02:09:46.725Z,63.00
2022-11-03T02:12:17.533Z,23.60
2022-11-03T02:14:53.725Z,62.00
2022-11-03T02:17:23.244Z,35.13
2022-11-03T02:19:57.791Z,101.20
2022-11-03T02:22:37.225Z,52.53
2022-11-03T02:25:15.531Z,141.13
2022-11-03T02:27:45.526Z,56.37
2022-11-03T02:30:14.110Z,132.37
2022-11-03T02:32:49.562Z,77.60
2022-11-03T02:35:24.720Z,104.50
2022-11-03T02:37:56.921Z,105.33
2022-11-03T02:40:30.770Z,72.40
2022-11-03T02:43:01.215Z,84.00
2022-11-03T02:45:29.955Z,61.33
2022-11-03T02:48:01.706Z,47.83
2022-11-03T02:50:31.394Z,38.90
2022-11-03T02:52:59.570Z,27.20
2022-11-03T02:55:36.680Z,33.60
2022-11-03T02:58:13.821Z,40.30
2022-11-03T03:00:48.727Z,103.63
2022-11-03T03:03:21.697Z,38.33
2022-11-03T03:05:52.803Z,28.20
2022-11-03T03:08:22.491Z,63.23
2022-11-03T03:10:51.510Z,53.33
2022-11-03T03:13:23.735Z,44.27
2022-11-03T03:16:04.252Z,43.97
2022-11-03T03:18:43.366Z,118.77
2022-11-03T03:21:16.358Z,32.47
2022-11-03T03:23:49.851Z,31.00
2022-11-03T03:26:25.133Z,34.00
2022-11-03T03:28:58.470Z,60.73
2022-11-03T03:31:29.020Z,52.27
2022-11-03T03:34:04.483Z,50.37
2022-11-03T03:36:34.669Z,56.10
2022-11-03T03:39:05.639Z,27.53
2022-11-03T03:41:35.390Z,123.10
2022-11-03T03:44:08.295Z,38.37
2022-11-03T03:46:40.611Z,73.53
2022-11-03T03:49:09.461Z,20.73
2022-11-03T03:51:39.104Z,51.50
2022-11-03T03:54:07.241Z,28.13
2022-11-03T03:56:41.529Z,55.93
2022-11-03T03:59:11.073Z,35.77
2022-11-03T04:01:39.431Z,40.17
2022-11-03T04:04:07.722Z,70.70
2022-11-03T04:06:35.823Z,35.57
2022-11-03T04:09:04.071Z,25.57
2022-11-03T04:11:49.683Z,42.63
2022-11-03T04:14:36.349Z,34.33
2022-11-03T04:17:21.813Z,80.40
2022-11-03T04:20:06.558Z,16.07
2022-11-03T04:22:35.326Z,69.07
2022-11-03T04:25:03.390Z,28.93
2022-11-03T04:27:34.256Z,51.37
2022-11-03T04:30:15.568Z,42.30
2022-11-03T04:32:44.387Z,37.47
2022-11-03T04:35:17.930Z,40.23
2022-11-03T04:37:47.876Z,31.37
2022-11-03T04:40:18.028Z,26.77
2022-11-03T04:42:47.564Z,60.37
2022-11-03T04:45:30.541Z,21.77
2022-11-03T04:48:01.172Z,56.23
2022-11-03T04:50:29.427Z,83.23
2022-11-03T04:52:59.154Z,35.87
2022-11-03T04:55:28.082Z,51.33
2022-11-03T04:57:59.565Z,24.63
2022-11-03T05:00:29.031Z,12.43
2022-11-03T05:02:57.139Z,40.30
2022-11-03T05:05:27.367Z,18.97
2022-11-03T05:07:57.825Z,34.07
2022-11-03T05:10:28.182Z,54.33
2022-11-03T05:12:57.045Z,22.07
2022-11-03T05:15:32.658Z,50.83
2022-11-03T05:18:02.675Z,20.90
2022-11-03T05:20:36.422Z,70.57
2022-11-03T05:23:07.047Z,27.50
2022-11-03T05:25:43.262Z,92.10
2022-11-03T05:28:21.313Z,40.07
2022-11-03T05:30:51.896Z,17.17
2022-11-03T05:33:29.492Z,38.23
2022-11-03T05:36:01.396Z,25.27
2022-11-03T05:38:32.542Z,24.23
2022-11-03T05:41:01.432Z,29.17
2022-11-03T05:43:30.440Z,33.43
2022-11-03T05:46:04.268Z,39.83
2022-11-03T05:48:35.849Z,15.67
2022-11-03T05:51:16.946Z,89.67
2022-11-03T05:53:46.245Z,249.33
2022-11-03T05:56:19.574Z,198.47
2022-11-03T05:58:49.876Z,90.80
2022-11-03T06:01:26.167Z,46.03
2022-11-03T06:03:54.515Z,46.87
2022-11-03T06:06:31.816Z,38.10
2022-11-03T06:09:01.135Z,41.57
2022-11-03T06:11:33.347Z,43.83
2022-11-03T06:14:01.755Z,32.77
2022-11-03T06:16:50.886Z,55.80
2022-11-03T06:19:28.382Z,37.20
2022-11-03T06:22:00.141Z,40.60
2022-11-03T06:24:32.988Z,21.70
2022-11-03T06:27:01.261Z,46.67
2022-11-03T06:29:33.592Z,67.37
2022-11-03T06:32:03.549Z,43.43
2022-11-03T06:34:44.137Z,50.00
2022-11-03T06:37:21.702Z,30.00
2022-11-03T06:39:50.707Z,48.47
2022-11-03T06:42:22.702Z,18.80
2022-11-03T06:44:52.961Z,89.77
2022-11-03T06:47:26.896Z,50.43
2022-11-03T06:49:57.514Z,52.03
2022-11-03T06:52:29.149Z,46.77
2022-11-03T06:55:13.781Z,65.80
2022-11-03T06:57:47.450Z,35.30
2022-11-03T07:00:33.639Z,88.90
2022-11-03T07:03:09.806Z,31.83
2022-11-03T07:05:40.262Z,75.63
2022-11-03T07:08:18.960Z,133.87
2022-11-03T07:10:47.015Z,30.10
2022-11-03T07:13:19.510Z,26.47
2022-11-03T07:15:47.660Z,45.73
2022-11-03T07:18:22.357Z,55.50
2022-11-03T07:20:50.991Z,26.30
2022-11-03T07:23:23.340Z,79.20
2022-11-03T07:25:54.653Z,92.33
2022-11-03T07:28:26.004Z,49.57
2022-11-03T07:30:54.243Z,73.00
2022-11-03T07:33:26.848Z,55.10
2022-11-03T07:38:48.511Z,41.50
2022-11-03T07:41:21.619Z,123.73
2022-11-03T07:43:54.769Z,49.93
2022-11-03T07:46:24.273Z,87.40
2022-11-03T07:48:57.842Z,100.17
2022-11-03T07:51:28.616Z,110.13
2022-11-03T07:53:59.853Z,90.17
2022-11-03T07:56:30.287Z,112.97
2022-11-03T07:59:02.567Z,95.53
2022-11-03T08:01:33.010Z,59.27
2022-11-03T08:04:05.679Z,25.20
2022-11-03T08:06:34.331Z,36.33
2022-11-03T08:09:02.426Z,255.93
2022-11-03T08:11:30.478Z,168.17
2022-11-03T08:13:58.830Z,67.70
2022-11-03T08:16:27.051Z,59.57
2022-11-03T08:18:55.229Z,75.00
2022-11-03T08:21:24.985Z,44.93
2022-11-03T08:23:53.366Z,81.87
2022-11-03T08:26:21.685Z,156.57
2022-11-03T08:28:49.967Z,196.30
2022-11-03T08:31:18.035Z,147.57
2022-11-03T08:33:46.455Z,145.27
2022-11-03T08:36:14.680Z,196.13
2022-11-03T08:38:44.281Z,158.70
2022-11-03T08:41:12.511Z,199.70
2022-11-03T08:43:40.630Z,171.47
2022-11-03T08:46:17.320Z,237.00
2022-11-03T08:48:46.730Z,269.30
2022-11-03T08:51:15.501Z,103.67
2022-11-03T08:53:45.308Z,141.70
2022-11-03T08:56:15.876Z,265.53
2022-11-03T08:58:44.721Z,573.87
2022-11-03T09:01:13.071Z,293.73
2022-11-03T09:03:41.908Z,419.07
2022-11-03T09:06:10.460Z,286.43
2022-11-03T09:11:27.999Z,337.17
2022-11-03T09:13:57.963Z,391.80
2022-11-03T09:16:26.661Z,490.13
2022-11-03T09:18:54.814Z,322.20
2022-11-03T09:21:22.881Z,554.67
2022-11-03T09:23:51.130Z,625.27
2022-11-03T09:26:19.216Z,559.80
2022-11-03T09:28:49.594Z,388.33
2022-11-03T09:31:17.913Z,326.43
2022-11-03T09:33:46.076Z,502.20
2022-11-03T09:36:14.165Z,661.00
2022-11-03T09:38:42.357Z,608.43
2022-11-03T09:41:26.311Z,872.17
2022-11-03T09:44:05.469Z,353.90
2022-11-03T09:46:35.226Z,309.83
2022-11-03T09:49:04.094Z,555.53
2022-11-03T09:51:33.571Z,470.20
2022-11-03T09:54:05.575Z,613.80
2022-11-03T09:56:37.428Z,672.67
2022-11-03T09:59:15.888Z,563.30
2022-11-03T10:01:45.894Z,360.30
2022-11-03T10:04:14.617Z,860.00
2022-11-03T10:06:42.797Z,566.03
2022-11-03T10:09:16.016Z,568.47
2022-11-03T10:11:45.534Z,508.27
2022-11-03T10:14:18.198Z,763.37
2022-11-03T10:16:53.556Z,466.87
2022-11-03T10:19:22.118Z,595.60
2022-11-03T10:21:50.277Z,702.03
2022-11-03T10:24:18.672Z,534.90
2022-11-03T10:26:48.406Z,605.23
2022-11-03T10:29:22.686Z,546.37
2022-11-03T10:31:52.394Z,538.73
2022-11-03T10:34:36.638Z,941.30
2022-11-03T10:37:20.967Z,806.47
2022-11-03T10:39:50.393Z,712.80
2022-11-03T10:42:23.290Z,470.80
2022-11-03T10:44:55.259Z,720.77
2022-11-03T10:47:33.827Z,755.80
2022-11-03T10:50:23.060Z,728.03
2022-11-03T10:52:52.030Z,435.13
2022-11-03T10:55:23.989Z,551.43
2022-11-03T10:57:55.673Z,647.47
2022-11-03T11:00:25.729Z,653.53
2022-11-03T11:02:59.465Z,730.97
2022-11-03T11:05:28.014Z,534.43
2022-11-03T11:07:57.131Z,695.37
2022-11-03T11:10:27.027Z,641.53
2022-11-03T11:13:26.816Z,953.77
2022-11-03T11:15:58.210Z,936.27
2022-11-03T11:19:11.564Z,789.60
2022-11-03T11:22:02.667Z,906.73
2022-11-03T11:24:59.701Z,837.63
2022-11-03T11:27:58.249Z,755.53
2022-11-03T11:31:00.292Z,764.33
2022-11-03T11:33:33.103Z,994.97
2022-11-03T11:36:20.471Z,905.03
2022-11-03T11:39:09.427Z,585.97
2022-11-03T11:42:13.322Z,643.30
2022-11-03T11:44:53.559Z,824.30
2022-11-03T11:47:33.374Z,869.87
2022-11-03T11:50:33.020Z,710.33
2022-11-03T11:53:06.193Z,609.83
2022-11-03T11:55:56.387Z,528.57
2022-11-03T11:58:30.601Z,787.97
2022-11-03T12:01:01.300Z,779.40
2022-11-03T12:03:40.355Z,778.47
2022-11-03T12:06:13.056Z,623.50
2022-11-03T12:08:41.800Z,818.00
2022-11-03T12:11:13.215Z,621.97
2022-11-03T12:13:48.195Z,842.40
2022-11-03T12:16:32.046Z,831.53
2022-11-03T12:19:37.961Z,937.13
2022-11-03T12:22:09.001Z,797.43
2022-11-03T12:24:49.959Z,600.97
2022-11-03T12:27:43.982Z,793.23
2022-11-03T12:30:20.122Z,540.37
2022-11-03T12:32:48.849Z,908.80
2022-11-03T12:35:17.330Z,657.73
2022-11-03T12:37:46.922Z,769.43
2022-11-03T12:40:15.366Z,593.23
2022-11-03T12:42:43.544Z,716.30
2022-11-03T12:45:13.798Z,678.80
2022-11-03T12:47:42.108Z,617.10
2022-11-03T12:50:10.889Z,662.80
2022-11-03T12:52:39.059Z,733.57
2022-11-03T12:55:09.437Z,424.00
2022-11-03T12:57:37.538Z,483.23
2022-11-03T13:00:06.962Z,785.37
2022-11-03T13:02:35.777Z,389.83
2022-11-03T13:05:04.212Z,600.40
2022-11-03T13:07:34.996Z,552.70
2022-11-03T13:10:04.445Z,545.63
2022-11-03T13:12:35.197Z,596.80
2022-11-03T13:15:05.434Z,517.50
2022-11-03T13:17:51.939Z,871.93
2022-11-03T13:20:22.095Z,634.60
2022-11-03T13:22:50.170Z,718.37
2022-11-03T13:25:18.969Z,479.43
2022-11-03T13:27:53.719Z,563.63
2022-11-03T13:30:22.481Z,842.63
2022-11-03T13:32:50.668Z,664.20
2022-11-03T13:35:19.549Z,352.77
2022-11-03T13:37:47.979Z,669.40
2022-11-03T13:43:07.034Z,493.43
2022-11-03T13:45:35.464Z,592.93
2022-11-03T13:49:04.046Z,672.93
2022-11-03T13:50:53.727Z,888.27
2022-11-03T13:56:13.154Z,711.27
2022-11-03T14:01:33.519Z,513.60
2022-11-03T14:06:49.805Z,895.63
2022-11-03T14:09:17.906Z,489.63
2022-11-03T14:12:03.204Z,734.73
2022-11-03T14:14:32.741Z,608.53
2022-11-03T14:17:00.893Z,730.43
2022-11-03T14:19:36.774Z,610.40
2022-11-03T14:22:06.294Z,684.90
2022-11-03T14:24:34.516Z,780.43
2022-11-03T14:27:02.606Z,590.80
2022-11-03T14:29:32.162Z,533.60
2022-11-03T14:32:00.225Z,437.50
2022-11-03T14:34:28.376Z,432.57
2022-11-03T14:36:56.544Z,618.23
2022-11-03T14:39:24.645Z,855.43
2022-11-03T14:42:03.806Z,255.77
2022-11-03T14:44:34.327Z,577.93
2022-11-03T14:47:03.559Z,684.07
2022-11-03T14:49:32.438Z,498.37
2022-11-03T14:52:02.702Z,578.60
2022-11-03T14:54:31.861Z,567.87
2022-11-03T14:57:00.484Z,614.67
2022-11-03T14:59:28.620Z,258.23
2022-11-03T15:01:59.366Z,378.47
2022-11-03T15:04:28.266Z,548.93
2022-11-03T15:06:56.483Z,529.83
2022-11-03T15:09:24.568Z,607.87
2022-11-03T15:11:52.832Z,446.83
2022-11-03T15:14:20.961Z,664.63
2022-11-03T15:16:49.099Z,441.47
2022-11-03T15:19:18.708Z,500.13
2022-11-03T15:21:46.805Z,484.27
2022-11-03T15:27:02.920Z,551.70
2022-11-03T15:29:31.007Z,405.90
2022-11-03T15:31:59.118Z,586.10
2022-11-03T15:34:28.586Z,429.93
2022-11-03T15:36:56.694Z,98.07
2022-11-03T15:39:24.743Z,505.20
2022-11-03T15:41:52.824Z,428.13
2022-11-03T15:44:20.892Z,491.87
2022-11-03T15:46:49.062Z,414.23
2022-11-03T15:49:17.135Z,173.30
2022-11-03T15:51:46.652Z,443.50
2022-11-03T15:54:14.696Z,419.17
2022-11-03T15:56:42.967Z,228.43
2022-11-03T15:59:11.040Z,403.73
2022-11-03T16:01:39.425Z,263.90
2022-11-03T16:04:07.608Z,213.87
2022-11-03T16:07:01.786Z,235.60
2022-11-03T16:09:25.114Z,273.30
2022-11-03T16:11:53.215Z,340.63
2022-11-03T16:14:21.355Z,406.70
2022-11-03T16:16:49.445Z,377.80
2022-11-03T16:19:17.592Z,262.33
2022-11-03T16:21:45.723Z,395.50
2022-11-03T16:24:13.778Z,283.77
2022-11-03T16:26:43.251Z,387.87
2022-11-03T16:29:11.458Z,112.03
2022-11-03T16:31:39.545Z,183.33
2022-11-03T16:34:07.720Z,189.33
2022-11-03T16:36:36.225Z,342.70
2022-11-03T16:39:04.398Z,361.53
2022-11-03T16:41:32.543Z,378.67
2022-11-03T16:44:01.970Z,340.67
2022-11-03T16:46:30.198Z,273.90
2022-11-03T16:51:31.312Z,158.63
2022-11-03T16:54:00.145Z,168.53
2022-11-03T16:56:29.046Z,263.07
2022-11-03T16:58:57.112Z,324.27
2022-11-03T17:01:27.451Z,516.43
2022-11-03T17:03:55.689Z,351.80
2022-11-03T17:06:23.797Z,202.67
2022-11-03T17:08:53.480Z,340.37
2022-11-03T17:11:36.091Z,249.70
2022-11-03T17:14:06.348Z,434.43
2022-11-03T17:16:36.418Z,267.90
2022-11-03T17:19:04.779Z,369.73
2022-11-03T17:21:33.075Z,287.70
2022-11-03T17:24:01.239Z,325.77
2022-11-03T17:26:37.761Z,262.53
2022-11-03T17:29:13.279Z,319.70
2022-11-03T17:31:43.039Z,241.10
2022-11-03T17:34:13.038Z,174.97
2022-11-03T17:36:41.374Z,244.97
2022-11-03T17:39:11.598Z,346.63
2022-11-03T17:41:39.663Z,329.47
2022-11-03T17:44:12.059Z,252.33
2022-11-03T17:46:40.198Z,439.70
2022-11-03T17:49:09.817Z,289.97
2022-11-03T17:51:42.177Z,304.37
2022-11-03T17:54:16.432Z,442.17
2022-11-03T17:56:44.782Z,348.03
2022-11-03T17:59:16.917Z,343.37
2022-11-03T18:01:45.561Z,213.77
2022-11-03T18:04:16.399Z,209.00
2022-11-03T18:06:45.643Z,232.00
2022-11-03T18:09:13.857Z,190.57
2022-11-03T18:12:01.487Z,455.97
2022-11-03T18:14:30.773Z,242.53
2022-11-03T18:16:59.827Z,136.27
2022-11-03T18:19:29.518Z,381.13
2022-11-03T18:21:58.973Z,306.50
2022-11-03T18:24:28.287Z,257.83
2022-11-03T18:26:56.473Z,336.77
2022-11-03T18:29:24.616Z,389.00
2022-11-03T18:31:52.964Z,366.07
2022-11-03T18:34:23.496Z,426.93
2022-11-03T18:36:54.449Z,204.77
2022-11-03T18:39:26.292Z,480.97
2022-11-03T18:41:55.011Z,190.23
2022-11-03T18:44:25.165Z,210.87
2022-11-03T18:46:55.422Z,127.03
2022-11-03T18:49:24.453Z,214.07
2022-11-03T18:52:02.048Z,162.00
2022-11-03T18:54:32.208Z,231.53
2022-11-03T18:57:00.570Z,370.80
2022-11-03T18:59:31.925Z,468.80
2022-11-03T19:02:00.506Z,133.77
2022-11-03T19:04:28.678Z,357.63
2022-11-03T19:06:58.505Z,294.43
2022-11-03T19:09:28.187Z,396.73
2022-11-03T19:11:58.717Z,242.70
2022-11-03T19:14:31.860Z,237.40
2022-11-03T19:19:49.577Z,228.33
2022-11-03T19:22:20.605Z,256.17
2022-11-03T19:24:48.958Z,384.20
2022-11-03T19:27:21.228Z,175.47
2022-11-03T19:29:50.460Z,320.87
2022-11-03T19:32:22.694Z,183.33
2022-11-03T19:34:56.140Z,151.63
2022-11-03T19:37:29.771Z,224.33
2022-11-03T19:40:00.874Z,245.53
2022-11-03T19:42:27.916Z,389.60
2022-11-03T19:44:56.362Z,368.50
2022-11-03T19:47:28.284Z,171.57
2022-11-03T19:50:00.990Z,198.40
2022-11-03T19:52:32.463Z,339.23
2022-11-03T19:55:03.323Z,344.43
2022-11-03T19:57:31.573Z,123.37
2022-11-03T19:59:59.869Z,190.17
2022-11-03T20:02:29.149Z,289.80
2022-11-03T20:04:57.388Z,370.67
2022-11-03T20:07:30.921Z,356.93
2022-11-03T20:10:02.636Z,434.20
2022-11-03T20:12:31.707Z,149.13
2022-11-03T20:14:59.797Z,303.80
2022-11-03T20:17:27.866Z,341.87
2022-11-03T20:19:55.977Z,470.37
2022-11-03T20:22:29.920Z,274.37
2022-11-03T20:25:03.231Z,280.47
2022-11-03T20:27:32.631Z,440.53
2022-11-03T20:30:01.045Z,275.37
2022-11-03T20:32:30.308Z,278.80
2022-11-03T20:34:58.398Z,339.83
2022-11-03T20:37:26.474Z,329.23
2022-11-03T20:39:54.587Z,280.33
2022-11-03T20:42:26.803Z,493.03
2022-11-03T20:44:55.138Z,134.93
2022-11-03T20:47:23.288Z,148.43
2022-11-03T20:49:51.377Z,229.67
2022-11-03T20:52:19.439Z,237.70
2022-11-03T20:54:47.544Z,202.23
2022-11-03T20:57:15.630Z,68.20
2022-11-03T20:59:45.194Z,237.60
2022-11-03T21:02:14.277Z,291.97
2022-11-03T21:04:43.255Z,264.07
2022-11-03T21:07:13.086Z,100.13
2022-11-03T21:09:41.494Z,291.47
2022-11-03T21:12:13.922Z,203.17
2022-11-03T21:15:00.676Z,488.00
2022-11-03T21:17:46.004Z,506.93
2022-11-03T21:20:14.777Z,189.63
2022-11-03T21:22:53.661Z,436.60
2022-11-03T21:25:24.164Z,460.03
2022-11-03T21:27:53.743Z,344.90
2022-11-03T21:30:24.328Z,261.30
2022-11-03T21:32:52.590Z,181.37
2022-11-03T21:35:22.830Z,156.20
2022-11-03T21:37:50.982Z,203.80
2022-11-03T21:40:19.159Z,328.27
2022-11-03T21:43:04.764Z,376.00
2022-11-03T21:45:34.494Z,436.40
2022-11-03T21:48:20.511Z,278.53
2022-11-03T21:50:48.942Z,352.33
2022-11-03T21:53:17.174Z,399.37
2022-11-03T21:55:47.522Z,179.13
2022-11-03T21:58:15.771Z,243.77
2022-11-03T22:00:47.156Z,310.87
2022-11-03T22:03:15.454Z,389.37
2022-11-03T22:05:43.794Z,258.67
2022-11-03T22:08:11.893Z,539.97
2022-11-03T22:10:40.709Z,231.10
2022-11-03T22:13:09.243Z,350.27
2022-11-03T22:15:55.495Z,387.30
2022-11-03T22:18:25.294Z,431.57
2022-11-03T22:21:10.665Z,394.10
2022-11-03T22:24:07.856Z,365.40
2022-11-03T22:26:53.162Z,684.53
2022-11-03T22:29:38.661Z,362.27
2022-11-03T22:32:14.315Z,396.80
2022-11-03T22:34:57.678Z,555.23
2022-11-03T22:37:25.802Z,373.30
2022-11-03T22:40:11.391Z,416.07
2022-11-03T22:42:56.994Z,162.10
2022-11-03T22:45:42.717Z,331.87
2022-11-03T22:48:12.653Z,282.17
2022-11-03T22:50:42.151Z,330.93
2022-11-03T22:53:30.057Z,335.07
2022-11-03T22:56:00.639Z,536.93
2022-11-03T22:58:30.595Z,268.20
2022-11-03T23:00:59.127Z,340.87
2022-11-03T23:03:27.255Z,628.20
2022-11-03T23:06:01.250Z,340.17
2022-11-03T23:08:31.444Z,599.97
2022-11-03T23:11:05.639Z,668.37
2022-11-03T23:13:33.924Z,594.80
2022-11-03T23:16:02.391Z,278.23
2022-11-03T23:18:48.093Z,547.20
2022-11-03T23:21:17.699Z,311.03
2022-11-03T23:24:03.299Z,597.03
2022-11-03T23:26:31.430Z,523.07
2022-11-03T23:28:59.497Z,443.67
2022-11-03T23:31:27.677Z,521.60
2022-11-03T23:33:56.128Z,386.77
2022-11-03T23:36:25.675Z,648.60
2022-11-03T23:38:53.734Z,476.37
2022-11-03T23:41:22.589Z,388.57
2022-11-03T23:43:51.096Z,445.43
2022-11-03T23:46:39.046Z,590.73
2022-11-03T23:49:07.926Z,595.87
2022-11-03T23:51:38.688Z,179.33
2022-11-03T23:54:08.825Z,822.03
2022-11-03T23:56:55.713Z,261.20
2022-11-03T23:59:24.980Z,250.03
